createdAt,value
2023-03-29T00:00:33.371Z,0.00
2023-03-29T00:01:35.866Z,0.00
2023-03-29T00:02:33.484Z,0.00
2023-03-29T00:03:33.311Z,0.00
2023-03-29T00:04:33.235Z,0.00
2023-03-29T00:05:33.174Z,0.00
2023-03-29T00:06:33.382Z,0.00
2023-03-29T00:07:33.085Z,0.00
2023-03-29T00:08:33.038Z,0.00
2023-03-29T00:09:33.022Z,0.00
2023-03-29T00:10:32.941Z,0.00
2023-03-29T00:11:32.929Z,0.00
2023-03-29T00:12:32.852Z,0.00
2023-03-29T00:13:32.846Z,0.00
2023-03-29T00:14:32.769Z,0.00
2023-03-29T00:15:32.753Z,0.00
2023-03-29T00:16:32.718Z,0.00
2023-03-29T00:17:32.677Z,0.00
2023-03-29T00:18:32.612Z,0.00
2023-03-29T00:19:32.551Z,0.00
2023-03-29T00:20:32.522Z,0.00
2023-03-29T00:21:32.456Z,0.00
2023-03-29T00:22:32.510Z,0.00
2023-03-29T00:23:32.376Z,0.00
2023-03-29T00:24:32.340Z,0.00
2023-03-29T00:25:32.304Z,0.00
2023-03-29T00:26:32.249Z,0.00
2023-03-29T00:27:32.216Z,0.00
2023-03-29T00:28:32.178Z,0.00
2023-03-29T00:29:32.119Z,0.00
2023-03-29T00:30:32.071Z,0.00
2023-03-29T00:31:32.052Z,0.00
2023-03-29T00:32:32.068Z,0.00
2023-03-29T00:33:31.962Z,0.00
2023-03-29T00:34:31.916Z,0.00
2023-03-29T00:35:31.882Z,0.00
2023-03-29T00:36:31.833Z,0.00
2023-03-29T00:37:31.798Z,0.00
2023-03-29T00:38:31.729Z,0.00
2023-03-29T00:39:31.693Z,0.00
2023-03-29T00:40:31.646Z,0.00
2023-03-29T00:41:31.596Z,0.00
2023-03-29T00:42:31.549Z,0.00
2023-03-29T00:43:31.514Z,0.00
2023-03-29T00:44:31.479Z,0.00
2023-03-29T00:45:31.458Z,0.00
2023-03-29T00:46:31.511Z,0.00
2023-03-29T00:47:31.382Z,0.00
2023-03-29T00:48:31.309Z,0.00
2023-03-29T00:49:31.253Z,0.00
2023-03-29T00:50:31.226Z,0.00
2023-03-29T00:51:31.161Z,0.00
2023-03-29T00:52:31.134Z,0.00
2023-03-29T00:53:31.084Z,0.00
2023-03-29T00:54:31.060Z,0.00
2023-03-29T00:55:30.984Z,0.00
2023-03-29T00:56:30.958Z,0.00
2023-03-29T00:57:30.982Z,0.00
2023-03-29T00:58:30.861Z,0.00
2023-03-29T00:59:30.813Z,0.00
2023-03-29T01:00:30.777Z,0.00
2023-03-29T01:01:30.779Z,0.00
2023-03-29T01:02:30.733Z,0.00
2023-03-29T01:03:30.703Z,0.00
2023-03-29T01:04:30.601Z,0.00
2023-03-29T01:05:30.553Z,0.00
2023-03-29T01:06:30.547Z,0.00
2023-03-29T01:07:30.481Z,0.00
2023-03-29T01:08:30.461Z,0.00
2023-03-29T01:09:30.397Z,0.00
2023-03-29T01:10:30.340Z,0.00
2023-03-29T01:11:30.293Z,0.00
2023-03-29T01:12:30.284Z,0.00
2023-03-29T01:13:30.208Z,0.00
2023-03-29T01:14:30.170Z,0.00
2023-03-29T01:15:30.146Z,0.00
2023-03-29T01:16:30.129Z,0.00
2023-03-29T01:17:30.072Z,0.00
2023-03-29T01:18:39.336Z,0.00
2023-03-29T01:19:30.695Z,0.00
2023-03-29T01:20:29.927Z,0.00
2023-03-29T01:21:29.943Z,0.00
2023-03-29T01:22:29.854Z,0.00
2023-03-29T01:23:29.820Z,0.00
2023-03-29T01:24:29.747Z,0.00
2023-03-29T01:25:29.742Z,0.00
2023-03-29T01:26:29.678Z,0.00
2023-03-29T01:27:29.704Z,0.00
2023-03-29T01:28:29.592Z,0.00
2023-03-29T01:29:29.568Z,0.00
2023-03-29T01:30:29.503Z,0.00
2023-03-29T01:31:29.476Z,0.00
2023-03-29T01:32:29.409Z,0.00
2023-03-29T01:33:29.354Z,0.00
2023-03-29T01:34:29.317Z,0.00
2023-03-29T01:35:29.266Z,0.00
2023-03-29T01:36:29.240Z,0.00
2023-03-29T01:37:29.285Z,0.00
2023-03-29T01:38:29.166Z,0.00
2023-03-29T01:39:29.114Z,0.00
2023-03-29T01:40:29.092Z,0.00
2023-03-29T01:41:29.018Z,0.00
2023-03-29T01:42:29.001Z,0.00
2023-03-29T01:43:28.941Z,0.00
2023-03-29T01:44:28.920Z,0.00
2023-03-29T01:45:28.873Z,0.00
2023-03-29T01:46:28.858Z,0.00
2023-03-29T01:47:28.830Z,0.00
2023-03-29T01:48:29.432Z,0.00
2023-03-29T01:49:28.724Z,0.00
2023-03-29T01:50:28.680Z,0.00
2023-03-29T01:51:28.596Z,0.00
2023-03-29T01:52:28.552Z,0.00
2023-03-29T01:53:28.538Z,0.00
2023-03-29T01:54:28.460Z,0.00
2023-03-29T01:55:28.457Z,0.00
2023-03-29T01:56:28.411Z,0.00
2023-03-29T01:57:28.372Z,0.00
2023-03-29T01:58:28.306Z,0.00
2023-03-29T01:59:28.269Z,0.00
2023-03-29T02:00:28.200Z,0.00
2023-03-29T02:01:28.214Z,0.00
2023-03-29T02:02:28.246Z,0.00
2023-03-29T02:03:28.230Z,0.00
2023-03-29T02:04:28.028Z,0.00
2023-03-29T02:05:28.007Z,0.00
2023-03-29T02:06:27.956Z,0.00
2023-03-29T02:07:28.797Z,0.00
2023-03-29T02:08:28.025Z,0.00
2023-03-29T02:09:28.720Z,0.00
2023-03-29T02:10:28.904Z,0.00
2023-03-29T02:20:57.767Z,0.00
2023-03-29T02:21:57.675Z,0.00
2023-03-29T02:22:57.991Z,0.00
2023-03-29T02:23:58.461Z,0.00
2023-03-29T02:25:00.468Z,0.00
2023-03-29T02:26:04.447Z,0.00
2023-03-29T02:27:13.939Z,0.00
2023-03-29T02:27:58.995Z,0.00
2023-03-29T02:29:00.940Z,0.00
2023-03-29T02:29:58.176Z,0.00
2023-03-29T02:30:57.394Z,0.00
2023-03-29T02:31:59.440Z,0.00
2023-03-29T02:33:00.978Z,0.00
2023-03-29T02:33:57.377Z,0.00
2023-03-29T02:34:58.442Z,0.00
2023-03-29T02:36:01.455Z,0.00
2023-03-29T02:36:58.841Z,0.00
2023-03-29T02:37:57.558Z,0.00
2023-03-29T02:38:58.865Z,0.00
2023-03-29T02:39:59.937Z,0.00
2023-03-29T02:40:59.092Z,0.00
2023-03-29T02:41:59.937Z,0.00
2023-03-29T02:43:00.460Z,0.00
2023-03-29T02:43:57.462Z,0.00
2023-03-29T02:44:57.606Z,0.00
2023-03-29T02:46:00.945Z,0.00
2023-03-29T02:46:59.502Z,0.00
2023-03-29T02:47:57.278Z,0.00
2023-03-29T02:48:56.513Z,0.00
2023-03-29T02:49:57.624Z,0.00
2023-03-29T02:50:57.460Z,0.00
2023-03-29T02:51:57.940Z,0.00
2023-03-29T02:53:01.967Z,0.00
2023-03-29T02:54:57.468Z,0.00
2023-03-29T02:55:59.444Z,0.00
2023-03-29T02:56:57.465Z,0.00
2023-03-29T02:57:56.956Z,0.00
2023-03-29T02:58:57.452Z,0.00
2023-03-29T02:59:59.448Z,0.00
2023-03-29T03:00:57.497Z,0.00
2023-03-29T03:02:00.518Z,0.00
2023-03-29T03:03:01.801Z,0.00
2023-03-29T03:04:00.030Z,0.00
2023-03-29T03:04:58.447Z,0.00
2023-03-29T03:05:57.829Z,0.00
2023-03-29T03:06:59.452Z,0.00
2023-03-29T03:07:58.572Z,0.00
2023-03-29T03:10:46.629Z,0.00
2023-03-29T03:11:46.441Z,0.00
2023-03-29T03:12:46.438Z,0.00
2023-03-29T03:13:46.352Z,0.00
2023-03-29T03:14:47.273Z,0.00
2023-03-29T03:15:48.065Z,0.00
2023-03-29T03:16:47.384Z,0.00
2023-03-29T03:17:46.209Z,0.00
2023-03-29T03:18:46.210Z,0.00
2023-03-29T03:19:46.689Z,0.00
2023-03-29T03:20:45.945Z,0.00
2023-03-29T03:21:45.873Z,0.00
2023-03-29T03:22:46.639Z,0.00
2023-03-29T03:23:45.802Z,0.00
2023-03-29T03:24:45.814Z,0.00
2023-03-29T03:25:45.710Z,0.00
2023-03-29T03:26:45.686Z,0.00
2023-03-29T03:27:45.636Z,0.00
2023-03-29T03:28:45.620Z,0.00
2023-03-29T03:29:45.624Z,0.00
2023-03-29T03:30:45.512Z,0.00
2023-03-29T03:31:45.492Z,0.00
2023-03-29T03:32:45.460Z,0.00
2023-03-29T03:33:45.380Z,0.00
2023-03-29T03:34:45.306Z,0.00
2023-03-29T03:35:45.299Z,0.00
2023-03-29T03:36:45.233Z,0.00
2023-03-29T03:37:45.224Z,0.00
2023-03-29T03:38:45.125Z,0.00
2023-03-29T03:39:45.098Z,0.00
2023-03-29T03:40:45.057Z,0.00
2023-03-29T03:41:45.009Z,0.00
2023-03-29T03:42:45.030Z,0.00
2023-03-29T03:43:44.958Z,0.00
2023-03-29T03:44:44.888Z,0.00
2023-03-29T03:45:44.909Z,0.00
2023-03-29T03:46:44.787Z,0.00
2023-03-29T03:47:44.773Z,0.00
2023-03-29T03:48:44.733Z,0.00
2023-03-29T03:49:44.697Z,0.00
2023-03-29T03:50:44.626Z,0.00
2023-03-29T03:51:44.608Z,0.00
2023-03-29T03:52:44.565Z,0.00
2023-03-29T03:53:44.550Z,0.00
2023-03-29T03:54:44.477Z,0.00
2023-03-29T03:55:44.446Z,0.00
2023-03-29T03:56:44.430Z,0.00
2023-03-29T03:57:44.336Z,0.00
2023-03-29T03:58:44.374Z,0.00
2023-03-29T03:59:44.285Z,0.00
2023-03-29T04:00:44.219Z,0.00
2023-03-29T04:01:44.216Z,0.00
2023-03-29T04:02:44.243Z,0.00
2023-03-29T04:03:44.152Z,0.00
2023-03-29T04:04:44.562Z,0.00
2023-03-29T04:05:44.043Z,0.00
2023-03-29T04:06:44.146Z,0.00
2023-03-29T04:07:43.907Z,0.00
2023-03-29T04:08:43.875Z,0.00
2023-03-29T04:09:43.857Z,0.00
2023-03-29T04:10:43.774Z,0.00
2023-03-29T04:11:43.780Z,0.00
2023-03-29T04:12:43.777Z,0.00
2023-03-29T04:13:43.646Z,0.00
2023-03-29T04:14:43.643Z,0.00
2023-03-29T04:15:43.651Z,0.00
2023-03-29T04:16:43.577Z,0.00
2023-03-29T04:17:43.579Z,0.00
2023-03-29T04:18:43.479Z,0.00
2023-03-29T04:19:43.421Z,0.00
2023-03-29T04:20:43.385Z,0.00
2023-03-29T04:21:43.370Z,0.00
2023-03-29T04:22:43.334Z,0.00
2023-03-29T04:23:43.281Z,0.00
2023-03-29T04:24:43.262Z,0.00
2023-03-29T04:25:43.155Z,0.00
2023-03-29T04:26:43.133Z,0.00
2023-03-29T04:27:43.054Z,0.00
2023-03-29T04:28:45.067Z,0.00
2023-03-29T04:29:44.576Z,0.00
2023-03-29T04:30:44.629Z,0.00
2023-03-29T04:31:47.113Z,0.00
2023-03-29T04:32:51.082Z,0.00
2023-03-29T04:33:44.567Z,0.00
2023-03-29T04:34:56.086Z,0.00
2023-03-29T04:37:46.593Z,0.00
2023-03-29T04:53:25.191Z,0.00
2023-03-29T04:54:24.453Z,0.00
2023-03-29T04:55:24.604Z,0.00
2023-03-29T04:56:26.272Z,0.00
2023-03-29T04:57:24.323Z,0.00
2023-03-29T04:58:31.465Z,0.00
2023-03-29T05:00:26.013Z,0.00
2023-03-29T05:01:30.221Z,0.00
2023-03-29T05:02:34.511Z,0.00
2023-03-29T05:04:24.751Z,0.00
2023-03-29T05:07:32.148Z,0.00
2023-03-29T05:08:32.820Z,0.00
2023-03-29T05:09:34.278Z,0.00
2023-03-29T05:10:34.960Z,0.00
2023-03-29T05:11:33.628Z,0.00
2023-03-29T05:17:33.765Z,5.63
2023-03-29T05:18:36.405Z,5.63
2023-03-29T05:19:33.982Z,5.63
2023-03-29T05:20:34.687Z,11.25
2023-03-29T05:21:34.449Z,11.25
2023-03-29T05:24:27.636Z,11.25
2023-03-29T05:25:29.791Z,16.88
2023-03-29T05:26:23.549Z,16.88
2023-03-29T05:27:24.279Z,16.88
2023-03-29T05:28:23.476Z,16.88
2023-03-29T05:29:23.392Z,22.50
2023-03-29T05:30:23.328Z,22.50
2023-03-29T05:31:23.347Z,22.50
2023-03-29T05:32:23.330Z,22.50
2023-03-29T05:33:23.264Z,22.50
2023-03-29T05:34:23.201Z,28.13
2023-03-29T05:35:23.156Z,28.13
2023-03-29T05:36:23.078Z,28.13
2023-03-29T05:37:23.044Z,33.75
2023-03-29T05:38:23.003Z,28.13
2023-03-29T05:39:23.017Z,28.13
2023-03-29T05:40:22.962Z,33.75
2023-03-29T05:41:22.980Z,39.38
2023-03-29T05:42:22.884Z,39.38
2023-03-29T05:43:22.801Z,45.00
2023-03-29T05:44:22.759Z,45.00
2023-03-29T05:45:22.809Z,45.00
2023-03-29T05:46:22.942Z,45.00
2023-03-29T05:47:22.704Z,45.00
2023-03-29T05:48:22.551Z,45.00
2023-03-29T05:49:22.506Z,50.63
2023-03-29T05:50:22.470Z,56.25
2023-03-29T05:51:22.492Z,61.88
2023-03-29T05:52:22.409Z,73.13
2023-03-29T05:53:22.341Z,84.38
2023-03-29T05:54:22.302Z,95.63
2023-03-29T05:55:22.271Z,101.25
2023-03-29T05:56:22.234Z,101.25
2023-03-29T05:57:22.269Z,95.63
2023-03-29T05:58:22.781Z,90.00
2023-03-29T05:59:22.079Z,84.38
2023-03-29T06:00:22.102Z,78.75
2023-03-29T06:01:22.025Z,78.75
2023-03-29T06:02:22.124Z,73.13
2023-03-29T06:03:22.263Z,67.50
2023-03-29T06:04:22.090Z,73.13
2023-03-29T06:05:22.785Z,78.75
2023-03-29T06:06:28.354Z,78.75
2023-03-29T06:07:21.735Z,73.13
2023-03-29T06:08:21.715Z,73.13
2023-03-29T06:09:21.657Z,67.50
2023-03-29T06:10:21.601Z,67.50
2023-03-29T06:11:21.561Z,67.50
2023-03-29T06:12:21.595Z,78.75
2023-03-29T06:13:21.474Z,78.75
2023-03-29T06:14:21.439Z,78.75
2023-03-29T06:15:21.391Z,84.38
2023-03-29T06:16:21.399Z,73.13
2023-03-29T06:17:21.356Z,73.13
2023-03-29T06:18:21.256Z,84.38
2023-03-29T06:19:21.215Z,101.25
2023-03-29T06:20:21.194Z,95.63
2023-03-29T06:21:21.130Z,95.63
2023-03-29T06:22:21.088Z,106.88
2023-03-29T06:23:21.046Z,95.63
2023-03-29T06:24:21.007Z,78.75
2023-03-29T06:25:20.971Z,95.63
2023-03-29T06:26:20.967Z,112.50
2023-03-29T06:27:20.878Z,112.50
2023-03-29T06:28:20.836Z,118.13
2023-03-29T06:29:20.806Z,123.75
2023-03-29T06:30:20.789Z,129.38
2023-03-29T06:31:20.762Z,118.13
2023-03-29T06:32:20.678Z,112.50
2023-03-29T06:33:20.631Z,118.13
2023-03-29T06:34:20.578Z,118.13
2023-03-29T06:35:20.531Z,112.50
2023-03-29T06:36:20.506Z,140.63
2023-03-29T06:37:20.453Z,151.88
2023-03-29T06:38:20.471Z,151.88
2023-03-29T06:39:20.372Z,174.38
2023-03-29T06:40:20.327Z,185.63
2023-03-29T06:41:20.282Z,185.63
2023-03-29T06:42:21.630Z,174.38
2023-03-29T06:43:20.201Z,163.13
2023-03-29T06:44:20.178Z,168.75
2023-03-29T06:45:21.837Z,185.63
2023-03-29T06:46:20.133Z,191.25
2023-03-29T06:47:20.035Z,196.88
2023-03-29T06:48:19.998Z,202.50
2023-03-29T06:49:19.949Z,202.50
2023-03-29T06:50:19.931Z,213.75
2023-03-29T06:51:21.897Z,208.13
2023-03-29T06:52:19.823Z,202.50
2023-03-29T06:53:19.778Z,202.50
2023-03-29T06:54:19.745Z,219.38
2023-03-29T06:55:19.711Z,236.25
2023-03-29T06:56:19.679Z,230.63
2023-03-29T06:57:19.637Z,213.75
2023-03-29T06:58:19.577Z,225.00
2023-03-29T06:59:19.535Z,225.00
2023-03-29T07:00:19.514Z,213.75
2023-03-29T07:01:19.476Z,219.38
2023-03-29T07:02:19.412Z,219.38
2023-03-29T07:03:19.939Z,219.38
2023-03-29T07:04:19.353Z,230.63
2023-03-29T07:05:19.293Z,241.88
2023-03-29T07:06:19.247Z,219.38
2023-03-29T07:07:19.223Z,208.13
2023-03-29T07:08:19.228Z,213.75
2023-03-29T07:09:19.962Z,196.88
2023-03-29T07:10:19.079Z,180.00
2023-03-29T07:11:19.046Z,191.25
2023-03-29T07:12:18.990Z,196.88
2023-03-29T07:13:18.941Z,202.50
2023-03-29T07:14:18.927Z,202.50
2023-03-29T07:15:18.873Z,180.00
2023-03-29T07:16:18.863Z,174.38
2023-03-29T07:17:18.802Z,163.13
2023-03-29T07:18:18.752Z,168.75
2023-03-29T07:19:27.980Z,174.38
2023-03-29T07:20:18.661Z,185.63
2023-03-29T07:21:18.611Z,185.63
2023-03-29T07:22:18.575Z,185.63
2023-03-29T07:23:18.580Z,180.00
2023-03-29T07:24:18.499Z,157.50
2023-03-29T07:25:18.459Z,151.88
2023-03-29T07:26:28.572Z,163.13
2023-03-29T07:27:18.361Z,163.13
2023-03-29T07:28:18.322Z,168.75
2023-03-29T07:29:18.277Z,180.00
2023-03-29T07:30:18.244Z,213.75
2023-03-29T07:31:18.200Z,225.00
2023-03-29T07:32:18.206Z,225.00
2023-03-29T07:33:18.197Z,225.00
2023-03-29T07:34:18.067Z,225.00
2023-03-29T07:35:18.026Z,225.00
2023-03-29T07:36:18.027Z,230.63
2023-03-29T07:37:17.944Z,225.00
2023-03-29T07:38:17.907Z,219.38
2023-03-29T07:39:17.860Z,219.38
2023-03-29T07:40:17.822Z,219.38
2023-03-29T07:41:17.805Z,208.13
2023-03-29T07:42:17.749Z,208.13
2023-03-29T07:43:17.692Z,236.25
2023-03-29T07:44:17.659Z,247.50
2023-03-29T07:45:17.624Z,236.25
2023-03-29T07:46:17.598Z,241.88
2023-03-29T07:47:17.530Z,264.38
2023-03-29T07:48:17.617Z,270.00
2023-03-29T07:49:17.447Z,253.13
2023-03-29T07:50:17.408Z,253.13
2023-03-29T07:51:17.368Z,264.38
2023-03-29T07:52:17.356Z,270.00
2023-03-29T07:53:17.313Z,270.00
2023-03-29T07:54:17.254Z,230.63
2023-03-29T07:55:17.205Z,230.63
2023-03-29T07:56:17.166Z,236.25
2023-03-29T07:57:17.171Z,225.00
2023-03-29T07:58:17.082Z,208.13
2023-03-29T07:59:17.048Z,191.25
2023-03-29T08:00:17.247Z,208.13
2023-03-29T08:01:19.362Z,202.50
2023-03-29T08:02:16.908Z,174.38
2023-03-29T08:03:16.970Z,157.50
2023-03-29T08:04:16.935Z,151.88
2023-03-29T08:05:23.224Z,157.50
2023-03-29T08:06:16.769Z,151.88
2023-03-29T08:07:18.803Z,151.88
2023-03-29T08:08:16.674Z,157.50
2023-03-29T08:09:16.616Z,168.75
2023-03-29T08:10:16.580Z,185.63
2023-03-29T08:11:16.536Z,191.25
2023-03-29T08:12:16.570Z,196.88
2023-03-29T08:13:16.457Z,225.00
2023-03-29T08:14:16.418Z,230.63
2023-03-29T08:15:16.403Z,247.50
2023-03-29T08:16:16.350Z,275.63
2023-03-29T08:17:16.293Z,286.88
2023-03-29T08:18:16.277Z,326.25
2023-03-29T08:19:16.220Z,354.38
2023-03-29T08:20:16.253Z,348.75
2023-03-29T08:21:16.138Z,360.00
2023-03-29T08:22:16.124Z,365.63
2023-03-29T08:23:16.059Z,371.25
2023-03-29T08:24:17.219Z,348.75
2023-03-29T08:25:16.986Z,343.13
2023-03-29T08:37:14.142Z,326.25
2023-03-29T08:52:39.797Z,360.00
2023-03-29T08:53:44.734Z,371.25
2023-03-29T08:54:40.168Z,393.75
2023-03-29T09:00:12.599Z,354.38
2023-03-29T09:01:27.209Z,371.25
2023-03-29T09:02:17.754Z,354.38
2023-03-29T09:03:12.892Z,365.63
2023-03-29T09:05:26.830Z,371.25
2023-03-29T09:06:12.732Z,354.38
2023-03-29T09:07:12.089Z,354.38
2023-03-29T09:08:10.798Z,365.63
2023-03-29T09:09:10.713Z,360.00
2023-03-29T09:10:10.628Z,365.63
2023-03-29T09:11:10.626Z,348.75
2023-03-29T09:12:10.583Z,371.25
2023-03-29T09:13:10.537Z,382.50
2023-03-29T09:14:10.492Z,365.63
2023-03-29T09:15:11.138Z,393.75
2023-03-29T09:16:11.190Z,399.38
2023-03-29T09:17:10.421Z,455.63
2023-03-29T09:18:10.379Z,438.75
2023-03-29T09:19:10.276Z,438.75
2023-03-29T09:20:10.240Z,461.25
2023-03-29T09:21:10.192Z,556.88
2023-03-29T09:22:12.761Z,635.63
2023-03-29T09:23:10.106Z,590.63
2023-03-29T09:24:31.122Z,556.88
2023-03-29T09:25:10.033Z,579.38
2023-03-29T09:26:11.307Z,540.00
2023-03-29T09:27:10.770Z,495.00
2023-03-29T09:28:10.102Z,545.63
2023-03-29T09:29:09.946Z,545.63
2023-03-29T09:30:09.850Z,585.00
2023-03-29T09:31:09.871Z,624.38
2023-03-29T09:32:09.766Z,624.38
2023-03-29T09:33:12.327Z,669.38
2023-03-29T09:34:12.609Z,691.88
2023-03-29T09:35:09.633Z,731.25
2023-03-29T09:36:09.668Z,680.63
2023-03-29T09:37:17.142Z,658.13
2023-03-29T09:41:46.702Z,663.75
2023-03-29T09:42:41.756Z,759.38
2023-03-29T09:52:47.387Z,624.38
2023-03-29T10:11:34.239Z,607.50
2023-03-29T10:12:32.575Z,652.50
2023-03-29T10:13:11.229Z,686.25
2023-03-29T10:14:16.720Z,776.25
2023-03-29T10:15:23.093Z,843.75
2023-03-29T10:16:25.286Z,900.00
2023-03-29T10:18:08.011Z,939.38
2023-03-29T10:19:13.238Z,804.38
2023-03-29T10:20:12.709Z,663.75
2023-03-29T10:21:11.913Z,725.63
2023-03-29T10:24:11.946Z,866.25
2023-03-29T10:25:03.445Z,781.88
2023-03-29T10:26:07.407Z,731.25
2023-03-29T10:27:14.931Z,776.25
2023-03-29T10:32:31.034Z,753.75
2023-03-29T10:34:26.551Z,961.88
2023-03-29T10:53:55.721Z,1462.50
2023-03-29T11:19:08.230Z,2041.88
2023-03-29T11:27:58.214Z,922.50
2023-03-29T11:32:30.989Z,528.75
2023-03-29T11:33:28.951Z,495.00
2023-03-29T11:34:27.291Z,461.25
2023-03-29T11:35:27.837Z,506.25
2023-03-29T11:36:36.427Z,483.75
2023-03-29T11:37:30.814Z,444.38
2023-03-29T11:38:31.906Z,427.50
2023-03-29T11:41:07.340Z,455.63
2023-03-29T11:42:07.454Z,556.88
2023-03-29T11:43:06.882Z,652.50
2023-03-29T11:44:07.396Z,765.00
2023-03-29T11:45:24.558Z,1001.25
2023-03-29T11:46:06.622Z,956.25
2023-03-29T11:47:08.840Z,1119.38
2023-03-29T11:48:06.134Z,1046.25
2023-03-29T11:49:06.038Z,911.25
2023-03-29T11:50:06.014Z,815.63
2023-03-29T11:51:05.971Z,725.63
2023-03-29T11:52:06.021Z,669.38
2023-03-29T11:53:05.894Z,686.25
2023-03-29T11:54:05.872Z,697.50
2023-03-29T11:55:05.831Z,646.88
2023-03-29T11:56:05.783Z,618.75
2023-03-29T11:57:05.778Z,624.38
2023-03-29T11:58:05.702Z,703.13
2023-03-29T11:59:05.675Z,714.38
2023-03-29T12:00:05.664Z,590.63
2023-03-29T12:01:05.591Z,511.88
2023-03-29T12:02:05.582Z,523.13
2023-03-29T12:03:05.608Z,551.25
2023-03-29T12:04:05.566Z,596.25
2023-03-29T12:05:05.447Z,601.88
2023-03-29T12:06:05.408Z,635.63
2023-03-29T12:07:05.368Z,686.25
2023-03-29T12:08:05.332Z,748.13
2023-03-29T12:09:05.330Z,742.50
2023-03-29T12:10:05.253Z,826.88
2023-03-29T12:11:05.362Z,883.13
2023-03-29T12:12:05.199Z,911.25
2023-03-29T12:13:05.174Z,883.13
2023-03-29T12:14:05.106Z,871.88
2023-03-29T12:15:05.100Z,770.63
2023-03-29T12:16:05.076Z,798.75
2023-03-29T12:17:05.628Z,793.13
2023-03-29T12:18:05.019Z,781.88
2023-03-29T12:19:04.917Z,770.63
2023-03-29T12:20:04.891Z,697.50
2023-03-29T12:21:05.012Z,669.38
2023-03-29T12:22:04.811Z,669.38
2023-03-29T12:23:04.769Z,641.25
2023-03-29T12:24:04.729Z,776.25
2023-03-29T12:25:04.718Z,871.88
2023-03-29T12:26:04.692Z,990.00
2023-03-29T12:27:04.645Z,956.25
2023-03-29T12:28:04.614Z,888.75
2023-03-29T12:29:04.559Z,798.75
2023-03-29T12:30:04.530Z,843.75
2023-03-29T12:31:04.684Z,933.75
2023-03-29T12:32:04.479Z,1119.38
2023-03-29T12:33:04.462Z,1141.88
2023-03-29T12:34:04.385Z,1091.25
2023-03-29T12:35:04.330Z,1136.25
2023-03-29T12:36:04.348Z,1226.25
2023-03-29T12:37:04.285Z,1248.75
2023-03-29T12:38:04.245Z,1254.38
2023-03-29T12:39:04.196Z,1209.38
2023-03-29T12:40:04.148Z,1147.50
2023-03-29T12:41:04.298Z,1108.13
2023-03-29T12:42:04.106Z,1074.38
2023-03-29T12:43:04.036Z,1018.13
2023-03-29T12:44:04.038Z,945.00
2023-03-29T12:45:03.965Z,939.38
2023-03-29T12:46:04.059Z,905.63
2023-03-29T12:47:03.911Z,939.38
2023-03-29T12:48:03.907Z,950.63
2023-03-29T12:49:03.850Z,984.38
2023-03-29T12:50:03.858Z,939.38
2023-03-29T12:51:03.747Z,916.88
2023-03-29T12:52:03.741Z,826.88
2023-03-29T12:53:03.697Z,770.63
2023-03-29T12:54:03.652Z,663.75
2023-03-29T12:55:03.619Z,590.63
2023-03-29T12:56:03.804Z,573.75
2023-03-29T12:57:03.598Z,607.50
2023-03-29T12:58:03.520Z,641.25
2023-03-29T12:59:03.477Z,658.13
2023-03-29T13:00:03.444Z,641.25
2023-03-29T13:01:05.560Z,703.13
2023-03-29T13:02:03.388Z,765.00
2023-03-29T13:03:03.346Z,871.88
2023-03-29T13:04:03.282Z,939.38
2023-03-29T13:05:03.321Z,950.63
2023-03-29T13:06:03.453Z,928.13
2023-03-29T13:07:03.209Z,860.63
2023-03-29T13:08:03.161Z,849.38
2023-03-29T13:09:03.108Z,776.25
2023-03-29T13:10:03.090Z,765.00
2023-03-29T13:11:03.045Z,832.50
2023-03-29T13:12:02.991Z,804.38
2023-03-29T13:13:02.989Z,736.88
2023-03-29T13:14:02.941Z,765.00
2023-03-29T13:15:02.914Z,871.88
2023-03-29T13:16:03.058Z,821.25
2023-03-29T13:17:15.568Z,765.00
2023-03-29T13:18:02.873Z,720.00
2023-03-29T13:19:02.756Z,663.75
2023-03-29T13:20:17.209Z,607.50
2023-03-29T13:21:02.688Z,618.75
2023-03-29T13:22:02.731Z,815.63
2023-03-29T13:23:02.688Z,804.38
2023-03-29T13:24:02.861Z,686.25
2023-03-29T13:25:02.560Z,601.88
2023-03-29T13:26:02.782Z,534.38
2023-03-29T13:27:02.484Z,466.88
2023-03-29T13:28:02.436Z,444.38
2023-03-29T13:29:02.424Z,489.38
2023-03-29T13:30:02.388Z,556.88
2023-03-29T13:31:02.420Z,585.00
2023-03-29T13:32:02.305Z,568.13
2023-03-29T13:33:02.366Z,556.88
2023-03-29T13:34:02.213Z,545.63
2023-03-29T13:35:02.219Z,545.63
2023-03-29T13:36:03.370Z,523.13
2023-03-29T13:37:02.148Z,450.00
2023-03-29T13:38:03.608Z,360.00
2023-03-29T13:39:03.638Z,326.25
2023-03-29T13:40:02.013Z,354.38
2023-03-29T13:41:02.028Z,405.00
2023-03-29T13:42:01.929Z,444.38
2023-03-29T13:43:01.982Z,472.50
2023-03-29T13:44:01.886Z,450.00
2023-03-29T13:45:01.894Z,500.63
2023-03-29T13:46:02.068Z,540.00
2023-03-29T13:47:01.961Z,517.50
2023-03-29T13:48:05.560Z,489.38
2023-03-29T13:49:01.755Z,427.50
2023-03-29T13:50:01.697Z,382.50
2023-03-29T13:51:01.669Z,360.00
2023-03-29T13:52:01.635Z,337.50
2023-03-29T13:53:01.584Z,360.00
2023-03-29T13:54:02.117Z,416.25
2023-03-29T13:55:01.534Z,495.00
2023-03-29T13:56:01.597Z,624.38
2023-03-29T13:57:01.478Z,691.88
2023-03-29T13:58:01.393Z,703.13
2023-03-29T13:59:01.324Z,680.63
2023-03-29T14:00:01.308Z,675.00
2023-03-29T14:01:01.289Z,675.00
2023-03-29T14:02:01.498Z,686.25
2023-03-29T14:03:01.270Z,686.25
2023-03-29T14:04:01.232Z,691.88
2023-03-29T14:05:01.135Z,686.25
2023-03-29T14:06:01.290Z,669.38
2023-03-29T14:07:01.029Z,663.75
2023-03-29T14:08:01.039Z,675.00
2023-03-29T14:09:00.983Z,714.38
2023-03-29T14:10:00.973Z,725.63
2023-03-29T14:11:00.900Z,725.63
2023-03-29T14:12:00.876Z,725.63
2023-03-29T14:13:01.711Z,708.75
2023-03-29T14:14:00.812Z,697.50
2023-03-29T14:15:00.817Z,675.00
2023-03-29T14:16:00.953Z,652.50
2023-03-29T14:17:00.758Z,618.75
2023-03-29T14:18:00.988Z,573.75
2023-03-29T14:19:00.649Z,540.00
2023-03-29T14:20:00.602Z,495.00
2023-03-29T14:21:00.572Z,483.75
2023-03-29T14:22:00.498Z,472.50
2023-03-29T14:23:00.519Z,444.38
2023-03-29T14:24:00.472Z,410.63
2023-03-29T14:25:00.385Z,399.38
2023-03-29T14:26:01.851Z,393.75
2023-03-29T14:27:00.390Z,393.75
2023-03-29T14:28:01.228Z,393.75
2023-03-29T14:29:00.401Z,388.13
2023-03-29T14:30:01.127Z,405.00
2023-03-29T14:31:01.150Z,455.63
2023-03-29T14:32:00.229Z,495.00
2023-03-29T14:33:00.247Z,483.75
2023-03-29T14:34:01.205Z,472.50
2023-03-29T14:35:00.182Z,438.75
2023-03-29T14:36:00.089Z,450.00
2023-03-29T14:37:00.089Z,489.38
2023-03-29T14:37:59.918Z,500.63
2023-03-29T14:38:59.900Z,483.75
2023-03-29T14:40:00.708Z,466.88
2023-03-29T14:40:59.831Z,455.63
2023-03-29T14:41:59.784Z,450.00
2023-03-29T14:42:59.755Z,461.25
2023-03-29T14:43:59.715Z,461.25
2023-03-29T14:44:59.663Z,450.00
2023-03-29T14:45:59.671Z,444.38
2023-03-29T14:46:59.622Z,438.75
2023-03-29T14:47:59.602Z,433.13
2023-03-29T14:48:59.586Z,421.88
2023-03-29T14:49:59.495Z,416.25
2023-03-29T14:50:59.489Z,416.25
2023-03-29T14:51:59.393Z,410.63
2023-03-29T14:52:59.373Z,405.00
2023-03-29T14:53:59.435Z,416.25
2023-03-29T14:54:59.297Z,427.50
2023-03-29T14:55:59.264Z,416.25
2023-03-29T14:56:59.285Z,427.50
2023-03-29T14:57:59.210Z,444.38
2023-03-29T14:58:59.771Z,433.13
2023-03-29T14:59:59.193Z,433.13
2023-03-29T15:00:59.154Z,427.50
2023-03-29T15:01:59.638Z,416.25
2023-03-29T15:02:59.109Z,410.63
2023-03-29T15:03:59.760Z,410.63
2023-03-29T15:05:01.806Z,416.25
2023-03-29T15:05:59.132Z,405.00
2023-03-29T15:06:58.898Z,393.75
2023-03-29T15:07:58.842Z,399.38
2023-03-29T15:09:05.363Z,399.38
2023-03-29T15:09:58.838Z,416.25
2023-03-29T15:11:00.771Z,450.00
2023-03-29T15:11:58.807Z,455.63
2023-03-29T15:12:58.776Z,472.50
2023-03-29T15:13:59.144Z,478.13
2023-03-29T15:14:58.617Z,466.88
2023-03-29T15:15:58.794Z,455.63
2023-03-29T15:16:59.429Z,455.63
2023-03-29T15:17:59.752Z,455.63
2023-03-29T15:18:59.312Z,427.50
2023-03-29T15:19:58.551Z,399.38
2023-03-29T15:20:58.513Z,365.63
2023-03-29T15:22:01.084Z,343.13
2023-03-29T15:22:59.386Z,337.50
2023-03-29T15:24:00.162Z,337.50
2023-03-29T15:24:59.241Z,326.25
2023-03-29T15:25:58.815Z,320.63
2023-03-29T15:27:01.162Z,286.88
2023-03-29T15:28:02.153Z,258.75
2023-03-29T15:28:58.145Z,230.63
2023-03-29T15:29:58.116Z,213.75
2023-03-29T15:31:07.200Z,213.75
2023-03-29T15:31:58.134Z,219.38